sensor_id;sensor_type;location;lat;lon;timestamp;P1;durP1;ratioP1;P2;durP2;ratioP2
44696;SDS011;57264;47.480;19.354;2024-01-10T00:01:16;12.90;;;5.30;;
44696;SDS011;57264;47.480;19.354;2024-01-10T00:03:42;15.07;;;6.65;;
44696;SDS011;57264;47.480;19.354;2024-01-10T00:06:08;15.43;;;6.32;;
44696;SDS011;57264;47.480;19.354;2024-01-10T00:08:33;11.33;;;4.83;;
44696;SDS011;57264;47.480;19.354;2024-01-10T00:10:59;12.30;;;5.40;;
44696;SDS011;57264;47.480;19.354;2024-01-10T00:13:24;12.30;;;5.43;;
44696;SDS011;57264;47.480;19.354;2024-01-10T00:15:51;8.27;;;4.85;;
44696;SDS011;57264;47.480;19.354;2024-01-10T00:18:16;15.47;;;4.67;;
44696;SDS011;57264;47.480;19.354;2024-01-10T00:20:42;9.73;;;5.03;;
44696;SDS011;57264;47.480;19.354;2024-01-10T00:23:07;9.53;;;5.20;;
44696;SDS011;57264;47.480;19.354;2024-01-10T00:25:33;10.27;;;5.63;;
44696;SDS011;57264;47.480;19.354;2024-01-10T00:27:58;14.40;;;5.97;;
44696;SDS011;57264;47.480;19.354;2024-01-10T00:30:25;11.27;;;4.60;;
44696;SDS011;57264;47.480;19.354;2024-01-10T00:32:50;12.32;;;5.85;;
44696;SDS011;57264;47.480;19.354;2024-01-10T00:35:16;15.07;;;6.67;;
44696;SDS011;57264;47.480;19.354;2024-01-10T00:37:42;16.87;;;6.20;;
44696;SDS011;57264;47.480;19.354;2024-01-10T00:40:07;12.07;;;6.13;;
44696;SDS011;57264;47.480;19.354;2024-01-10T00:42:34;12.02;;;5.90;;
44696;SDS011;57264;47.480;19.354;2024-01-10T00:45:00;12.57;;;6.07;;
44696;SDS011;57264;47.480;19.354;2024-01-10T00:47:25;14.50;;;5.20;;
44696;SDS011;57264;47.480;19.354;2024-01-10T00:49:51;13.37;;;5.53;;
44696;SDS011;57264;47.480;19.354;2024-01-10T00:52:16;12.90;;;5.57;;
44696;SDS011;57264;47.480;19.354;2024-01-10T00:54:42;14.07;;;5.87;;
44696;SDS011;57264;47.480;19.354;2024-01-10T00:57:09;10.10;;;4.93;;
44696;SDS011;57264;47.480;19.354;2024-01-10T00:59:35;11.40;;;6.30;;
44696;SDS011;57264;47.480;19.354;2024-01-10T01:02:00;9.10;;;4.73;;
44696;SDS011;57264;47.480;19.354;2024-01-10T01:04:26;8.37;;;4.70;;
44696;SDS011;57264;47.480;19.354;2024-01-10T01:06:54;10.97;;;4.53;;
44696;SDS011;57264;47.480;19.354;2024-01-10T01:09:20;9.75;;;5.10;;
44696;SDS011;57264;47.480;19.354;2024-01-10T01:11:45;9.97;;;4.80;;
44696;SDS011;57264;47.480;19.354;2024-01-10T01:14:11;7.57;;;4.57;;
44696;SDS011;57264;47.480;19.354;2024-01-10T01:16:36;12.17;;;5.00;;
44696;SDS011;57264;47.480;19.354;2024-01-10T01:19:02;10.50;;;4.63;;
44696;SDS011;57264;47.480;19.354;2024-01-10T01:21:27;15.40;;;5.80;;
44696;SDS011;57264;47.480;19.354;2024-01-10T01:23:53;11.90;;;5.97;;
44696;SDS011;57264;47.480;19.354;2024-01-10T01:26:19;11.80;;;5.63;;
44696;SDS011;57264;47.480;19.354;2024-01-10T01:28:45;10.83;;;5.37;;
44696;SDS011;57264;47.480;19.354;2024-01-10T01:31:10;10.13;;;4.83;;
44696;SDS011;57264;47.480;19.354;2024-01-10T01:33:36;8.73;;;4.40;;
44696;SDS011;57264;47.480;19.354;2024-01-10T01:36:01;10.43;;;5.07;;
44696;SDS011;57264;47.480;19.354;2024-01-10T01:38:27;11.00;;;4.30;;
44696;SDS011;57264;47.480;19.354;2024-01-10T01:40:52;8.50;;;4.50;;
44696;SDS011;57264;47.480;19.354;2024-01-10T01:43:22;7.97;;;5.07;;
44696;SDS011;57264;47.480;19.354;2024-01-10T01:45:50;8.25;;;4.07;;
44696;SDS011;57264;47.480;19.354;2024-01-10T01:48:19;9.55;;;4.53;;
44696;SDS011;57264;47.480;19.354;2024-01-10T01:50:45;13.32;;;5.13;;
44696;SDS011;57264;47.480;19.354;2024-01-10T01:53:13;13.48;;;5.50;;
44696;SDS011;57264;47.480;19.354;2024-01-10T01:55:39;9.02;;;4.43;;
44696;SDS011;57264;47.480;19.354;2024-01-10T01:58:05;10.57;;;5.15;;
44696;SDS011;57264;47.480;19.354;2024-01-10T02:00:32;7.80;;;4.65;;
44696;SDS011;57264;47.480;19.354;2024-01-10T02:02:59;8.70;;;4.55;;
44696;SDS011;57264;47.480;19.354;2024-01-10T02:05:25;10.45;;;4.35;;
44696;SDS011;57264;47.480;19.354;2024-01-10T02:07:51;10.40;;;4.57;;
44696;SDS011;57264;47.480;19.354;2024-01-10T02:10:17;10.27;;;4.83;;
44696;SDS011;57264;47.480;19.354;2024-01-10T02:12:44;9.50;;;5.30;;
44696;SDS011;57264;47.480;19.354;2024-01-10T02:15:10;11.52;;;5.15;;
44696;SDS011;57264;47.480;19.354;2024-01-10T02:17:36;9.00;;;5.00;;
44696;SDS011;57264;47.480;19.354;2024-01-10T02:20:09;9.43;;;4.67;;
44696;SDS011;57264;47.480;19.354;2024-01-10T02:22:38;9.50;;;4.65;;
44696;SDS011;57264;47.480;19.354;2024-01-10T02:25:05;9.30;;;4.83;;
44696;SDS011;57264;47.480;19.354;2024-01-10T02:27:37;10.88;;;5.28;;
44696;SDS011;57264;47.480;19.354;2024-01-10T02:30:04;9.48;;;4.43;;
44696;SDS011;57264;47.480;19.354;2024-01-10T02:32:31;10.18;;;4.63;;
44696;SDS011;57264;47.480;19.354;2024-01-10T02:34:57;12.03;;;4.87;;
44696;SDS011;57264;47.480;19.354;2024-01-10T02:37:22;7.55;;;4.55;;
44696;SDS011;57264;47.480;19.354;2024-01-10T02:39:48;11.30;;;4.67;;
44696;SDS011;57264;47.480;19.354;2024-01-10T02:42:14;8.43;;;4.77;;
44696;SDS011;57264;47.480;19.354;2024-01-10T02:44:39;9.10;;;4.77;;
44696;SDS011;57264;47.480;19.354;2024-01-10T02:47:05;8.17;;;4.27;;
44696;SDS011;57264;47.480;19.354;2024-01-10T02:49:32;12.45;;;5.32;;
44696;SDS011;57264;47.480;19.354;2024-01-10T02:51:57;8.87;;;4.20;;
44696;SDS011;57264;47.480;19.354;2024-01-10T02:54:23;12.13;;;5.27;;
44696;SDS011;57264;47.480;19.354;2024-01-10T02:56:48;8.50;;;4.10;;
44696;SDS011;57264;47.480;19.354;2024-01-10T02:59:14;11.33;;;4.90;;
44696;SDS011;57264;47.480;19.354;2024-01-10T03:01:40;8.70;;;4.97;;
44696;SDS011;57264;47.480;19.354;2024-01-10T03:04:05;10.43;;;5.47;;
44696;SDS011;57264;47.480;19.354;2024-01-10T03:06:31;7.73;;;4.07;;
44696;SDS011;57264;47.480;19.354;2024-01-10T03:08:56;8.47;;;4.53;;
44696;SDS011;57264;47.480;19.354;2024-01-10T03:11:22;17.90;;;5.83;;
44696;SDS011;57264;47.480;19.354;2024-01-10T03:13:50;27.23;;;5.70;;
44696;SDS011;57264;47.480;19.354;2024-01-10T03:16:17;10.48;;;4.50;;
44696;SDS011;57264;47.480;19.354;2024-01-10T03:18:43;11.20;;;4.75;;
44696;SDS011;57264;47.480;19.354;2024-01-10T03:21:09;8.03;;;4.77;;
44696;SDS011;57264;47.480;19.354;2024-01-10T03:23:34;8.83;;;4.37;;
44696;SDS011;57264;47.480;19.354;2024-01-10T03:26:00;11.40;;;4.87;;
44696;SDS011;57264;47.480;19.354;2024-01-10T03:28:25;8.67;;;4.43;;
44696;SDS011;57264;47.480;19.354;2024-01-10T03:30:51;10.47;;;4.40;;
44696;SDS011;57264;47.480;19.354;2024-01-10T03:33:17;8.27;;;3.70;;
44696;SDS011;57264;47.480;19.354;2024-01-10T03:35:42;9.30;;;4.67;;
44696;SDS011;57264;47.480;19.354;2024-01-10T03:38:08;10.55;;;3.60;;
44696;SDS011;57264;47.480;19.354;2024-01-10T03:40:34;7.87;;;3.77;;
44696;SDS011;57264;47.480;19.354;2024-01-10T03:42:59;7.93;;;3.77;;
44696;SDS011;57264;47.480;19.354;2024-01-10T03:45:25;7.03;;;4.23;;
44696;SDS011;57264;47.480;19.354;2024-01-10T03:47:51;6.40;;;3.10;;
44696;SDS011;57264;47.480;19.354;2024-01-10T03:50:19;23.57;;;4.27;;
44696;SDS011;57264;47.480;19.354;2024-01-10T03:52:45;8.77;;;4.35;;
44696;SDS011;57264;47.480;19.354;2024-01-10T03:55:11;9.67;;;5.20;;
44696;SDS011;57264;47.480;19.354;2024-01-10T03:57:38;9.85;;;5.30;;
44696;SDS011;57264;47.480;19.354;2024-01-10T04:00:04;10.20;;;4.57;;
44696;SDS011;57264;47.480;19.354;2024-01-10T04:02:31;10.30;;;4.43;;
44696;SDS011;57264;47.480;19.354;2024-01-10T04:04:57;9.73;;;4.82;;
44696;SDS011;57264;47.480;19.354;2024-01-10T04:07:23;14.20;;;6.35;;
44696;SDS011;57264;47.480;19.354;2024-01-10T04:09:51;10.20;;;4.90;;
44696;SDS011;57264;47.480;19.354;2024-01-10T04:12:16;11.37;;;4.67;;
44696;SDS011;57264;47.480;19.354;2024-01-10T04:14:42;11.10;;;5.60;;
44696;SDS011;57264;47.480;19.354;2024-01-10T04:17:07;10.90;;;4.90;;
44696;SDS011;57264;47.480;19.354;2024-01-10T04:19:34;8.63;;;4.03;;
44696;SDS011;57264;47.480;19.354;2024-01-10T04:21:59;11.27;;;5.40;;
44696;SDS011;57264;47.480;19.354;2024-01-10T04:24:25;12.30;;;4.30;;
44696;SDS011;57264;47.480;19.354;2024-01-10T04:26:51;11.10;;;5.70;;
44696;SDS011;57264;47.480;19.354;2024-01-10T04:29:16;11.47;;;5.10;;
44696;SDS011;57264;47.480;19.354;2024-01-10T04:31:42;9.87;;;4.70;;
44696;SDS011;57264;47.480;19.354;2024-01-10T04:34:07;11.37;;;4.10;;
44696;SDS011;57264;47.480;19.354;2024-01-10T04:36:33;9.37;;;3.90;;
44696;SDS011;57264;47.480;19.354;2024-01-10T04:38:59;11.30;;;3.80;;
44696;SDS011;57264;47.480;19.354;2024-01-10T04:41:24;8.23;;;3.90;;
44696;SDS011;57264;47.480;19.354;2024-01-10T04:43:50;7.40;;;3.25;;
44696;SDS011;57264;47.480;19.354;2024-01-10T04:46:16;5.82;;;2.85;;
44696;SDS011;57264;47.480;19.354;2024-01-10T04:48:42;6.90;;;3.20;;
44696;SDS011;57264;47.480;19.354;2024-01-10T04:51:07;7.90;;;3.23;;
44696;SDS011;57264;47.480;19.354;2024-01-10T04:53:33;6.40;;;3.20;;
44696;SDS011;57264;47.480;19.354;2024-01-10T04:55:59;6.53;;;3.17;;
44696;SDS011;57264;47.480;19.354;2024-01-10T04:58:24;6.88;;;3.35;;
44696;SDS011;57264;47.480;19.354;2024-01-10T05:00:50;8.43;;;3.53;;
44696;SDS011;57264;47.480;19.354;2024-01-10T05:03:15;8.33;;;4.20;;
44696;SDS011;57264;47.480;19.354;2024-01-10T05:05:41;7.70;;;3.77;;
44696;SDS011;57264;47.480;19.354;2024-01-10T05:08:07;5.73;;;4.17;;
44696;SDS011;57264;47.480;19.354;2024-01-10T05:10:32;6.60;;;3.33;;
44696;SDS011;57264;47.480;19.354;2024-01-10T05:12:58;7.17;;;3.80;;
44696;SDS011;57264;47.480;19.354;2024-01-10T05:15:23;7.63;;;3.53;;
44696;SDS011;57264;47.480;19.354;2024-01-10T05:17:49;23.50;;;3.60;;
44696;SDS011;57264;47.480;19.354;2024-01-10T05:20:14;5.13;;;3.67;;
44696;SDS011;57264;47.480;19.354;2024-01-10T05:22:40;7.60;;;3.53;;
44696;SDS011;57264;47.480;19.354;2024-01-10T05:25:06;16.33;;;3.80;;
44696;SDS011;57264;47.480;19.354;2024-01-10T05:27:32;8.07;;;3.97;;
44696;SDS011;57264;47.480;19.354;2024-01-10T05:29:57;10.67;;;3.60;;
44696;SDS011;57264;47.480;19.354;2024-01-10T05:32:24;8.75;;;3.78;;
44696;SDS011;57264;47.480;19.354;2024-01-10T05:34:51;8.85;;;3.90;;
44696;SDS011;57264;47.480;19.354;2024-01-10T05:37:17;28.43;;;5.33;;
44696;SDS011;57264;47.480;19.354;2024-01-10T05:39:42;11.63;;;5.27;;
44696;SDS011;57264;47.480;19.354;2024-01-10T05:42:08;14.20;;;4.07;;
44696;SDS011;57264;47.480;19.354;2024-01-10T05:44:33;14.73;;;4.53;;
44696;SDS011;57264;47.480;19.354;2024-01-10T05:46:59;7.30;;;4.13;;
44696;SDS011;57264;47.480;19.354;2024-01-10T05:49:25;8.33;;;4.00;;
44696;SDS011;57264;47.480;19.354;2024-01-10T05:51:50;7.75;;;4.43;;
44696;SDS011;57264;47.480;19.354;2024-01-10T05:54:16;9.17;;;4.30;;
44696;SDS011;57264;47.480;19.354;2024-01-10T05:56:43;9.98;;;4.25;;
44696;SDS011;57264;47.480;19.354;2024-01-10T05:59:09;8.93;;;4.05;;
44696;SDS011;57264;47.480;19.354;2024-01-10T06:01:37;7.63;;;3.80;;
44696;SDS011;57264;47.480;19.354;2024-01-10T06:04:05;12.48;;;3.63;;
44696;SDS011;57264;47.480;19.354;2024-01-10T06:06:31;6.93;;;4.07;;
44696;SDS011;57264;47.480;19.354;2024-01-10T06:08:57;8.83;;;3.80;;
44696;SDS011;57264;47.480;19.354;2024-01-10T06:11:23;8.30;;;3.60;;
44696;SDS011;57264;47.480;19.354;2024-01-10T06:13:48;10.67;;;4.17;;
44696;SDS011;57264;47.480;19.354;2024-01-10T06:16:14;6.40;;;4.33;;
44696;SDS011;57264;47.480;19.354;2024-01-10T06:18:40;11.52;;;4.72;;
44696;SDS011;57264;47.480;19.354;2024-01-10T06:21:06;8.80;;;4.13;;
44696;SDS011;57264;47.480;19.354;2024-01-10T06:23:31;21.17;;;4.63;;
44696;SDS011;57264;47.480;19.354;2024-01-10T06:25:57;9.23;;;4.10;;
44696;SDS011;57264;47.480;19.354;2024-01-10T06:28:22;9.37;;;4.50;;
44696;SDS011;57264;47.480;19.354;2024-01-10T06:30:48;13.40;;;4.73;;
44696;SDS011;57264;47.480;19.354;2024-01-10T06:33:15;14.82;;;4.53;;
44696;SDS011;57264;47.480;19.354;2024-01-10T06:35:45;8.45;;;4.03;;
44696;SDS011;57264;47.480;19.354;2024-01-10T06:38:11;13.43;;;5.07;;
44696;SDS011;57264;47.480;19.354;2024-01-10T06:40:37;11.23;;;5.20;;
44696;SDS011;57264;47.480;19.354;2024-01-10T06:43:03;14.03;;;5.80;;
44696;SDS011;57264;47.480;19.354;2024-01-10T06:45:29;11.25;;;5.60;;
44696;SDS011;57264;47.480;19.354;2024-01-10T06:47:55;12.30;;;5.20;;
44696;SDS011;57264;47.480;19.354;2024-01-10T06:50:20;19.20;;;4.77;;
44696;SDS011;57264;47.480;19.354;2024-01-10T06:52:46;13.32;;;4.40;;
44696;SDS011;57264;47.480;19.354;2024-01-10T06:55:13;12.10;;;5.00;;
44696;SDS011;57264;47.480;19.354;2024-01-10T06:57:39;14.03;;;5.57;;
44696;SDS011;57264;47.480;19.354;2024-01-10T07:00:05;12.83;;;4.60;;
44696;SDS011;57264;47.480;19.354;2024-01-10T07:02:36;17.20;;;4.72;;
44696;SDS011;57264;47.480;19.354;2024-01-10T07:05:02;25.70;;;4.28;;
44696;SDS011;57264;47.480;19.354;2024-01-10T07:07:31;18.95;;;3.67;;
44696;SDS011;57264;47.480;19.354;2024-01-10T07:09:59;20.38;;;4.63;;
44696;SDS011;57264;47.480;19.354;2024-01-10T07:12:25;12.80;;;5.03;;
44696;SDS011;57264;47.480;19.354;2024-01-10T07:14:51;20.13;;;3.53;;
44696;SDS011;57264;47.480;19.354;2024-01-10T07:17:16;17.53;;;4.17;;
44696;SDS011;57264;47.480;19.354;2024-01-10T07:19:42;23.53;;;5.10;;
44696;SDS011;57264;47.480;19.354;2024-01-10T07:22:07;14.30;;;3.90;;
44696;SDS011;57264;47.480;19.354;2024-01-10T07:24:35;15.60;;;4.97;;
44696;SDS011;57264;47.480;19.354;2024-01-10T07:27:00;10.87;;;4.50;;
44696;SDS011;57264;47.480;19.354;2024-01-10T07:29:26;19.27;;;4.67;;
44696;SDS011;57264;47.480;19.354;2024-01-10T07:31:52;25.60;;;8.03;;
44696;SDS011;57264;47.480;19.354;2024-01-10T07:34:17;22.93;;;8.13;;
44696;SDS011;57264;47.480;19.354;2024-01-10T07:36:43;15.83;;;7.30;;
44696;SDS011;57264;47.480;19.354;2024-01-10T07:39:09;16.07;;;6.23;;
44696;SDS011;57264;47.480;19.354;2024-01-10T07:41:35;17.30;;;5.90;;
44696;SDS011;57264;47.480;19.354;2024-01-10T07:44:00;12.53;;;5.60;;
44696;SDS011;57264;47.480;19.354;2024-01-10T07:46:26;13.83;;;6.23;;
44696;SDS011;57264;47.480;19.354;2024-01-10T07:48:54;17.98;;;6.88;;
44696;SDS011;57264;47.480;19.354;2024-01-10T07:51:19;20.27;;;7.90;;
44696;SDS011;57264;47.480;19.354;2024-01-10T07:53:45;20.43;;;8.80;;
44696;SDS011;57264;47.480;19.354;2024-01-10T07:56:10;15.93;;;6.80;;
44696;SDS011;57264;47.480;19.354;2024-01-10T07:58:38;22.73;;;7.00;;
44696;SDS011;57264;47.480;19.354;2024-01-10T08:01:03;22.03;;;6.87;;
44696;SDS011;57264;47.480;19.354;2024-01-10T08:03:29;24.35;;;8.60;;
44696;SDS011;57264;47.480;19.354;2024-01-10T08:05:55;23.60;;;7.80;;
44696;SDS011;57264;47.480;19.354;2024-01-10T08:08:21;31.23;;;10.50;;
44696;SDS011;57264;47.480;19.354;2024-01-10T08:10:47;38.00;;;12.18;;
44696;SDS011;57264;47.480;19.354;2024-01-10T08:13:12;32.87;;;12.53;;
44696;SDS011;57264;47.480;19.354;2024-01-10T08:15:38;36.67;;;11.77;;
44696;SDS011;57264;47.480;19.354;2024-01-10T08:18:03;27.13;;;12.30;;
44696;SDS011;57264;47.480;19.354;2024-01-10T08:20:29;30.53;;;12.70;;
44696;SDS011;57264;47.480;19.354;2024-01-10T08:22:55;34.47;;;13.30;;
44696;SDS011;57264;47.480;19.354;2024-01-10T08:25:21;33.70;;;12.23;;
44696;SDS011;57264;47.480;19.354;2024-01-10T08:27:46;34.40;;;13.13;;
44696;SDS011;57264;47.480;19.354;2024-01-10T08:30:12;37.20;;;12.60;;
44696;SDS011;57264;47.480;19.354;2024-01-10T08:32:37;36.13;;;11.47;;
44696;SDS011;57264;47.480;19.354;2024-01-10T08:35:03;29.07;;;11.80;;
44696;SDS011;57264;47.480;19.354;2024-01-10T08:37:37;29.98;;;10.95;;
44696;SDS011;57264;47.480;19.354;2024-01-10T08:40:03;34.03;;;11.83;;
44696;SDS011;57264;47.480;19.354;2024-01-10T08:42:33;35.80;;;11.82;;
44696;SDS011;57264;47.480;19.354;2024-01-10T08:44:58;33.83;;;12.53;;
44696;SDS011;57264;47.480;19.354;2024-01-10T08:47:24;26.33;;;11.07;;
44696;SDS011;57264;47.480;19.354;2024-01-10T08:49:50;26.00;;;12.40;;
44696;SDS011;57264;47.480;19.354;2024-01-10T08:52:16;28.52;;;12.57;;
44696;SDS011;57264;47.480;19.354;2024-01-10T08:54:42;30.83;;;13.80;;
44696;SDS011;57264;47.480;19.354;2024-01-10T08:57:08;25.13;;;10.95;;
44696;SDS011;57264;47.480;19.354;2024-01-10T08:59:33;25.40;;;10.37;;
44696;SDS011;57264;47.480;19.354;2024-01-10T09:02:00;22.83;;;10.40;;
44696;SDS011;57264;47.480;19.354;2024-01-10T09:04:28;18.23;;;8.80;;
44696;SDS011;57264;47.480;19.354;2024-01-10T09:06:54;19.55;;;7.90;;
44696;SDS011;57264;47.480;19.354;2024-01-10T09:09:19;15.57;;;7.70;;
44696;SDS011;57264;47.480;19.354;2024-01-10T09:11:46;19.73;;;7.45;;
44696;SDS011;57264;47.480;19.354;2024-01-10T09:14:13;13.63;;;6.55;;
44696;SDS011;57264;47.480;19.354;2024-01-10T09:16:39;20.77;;;7.33;;
44696;SDS011;57264;47.480;19.354;2024-01-10T09:19:05;15.05;;;6.28;;
44696;SDS011;57264;47.480;19.354;2024-01-10T09:21:31;18.30;;;6.70;;
44696;SDS011;57264;47.480;19.354;2024-01-10T09:23:57;11.77;;;5.63;;
44696;SDS011;57264;47.480;19.354;2024-01-10T09:26:23;10.40;;;5.80;;
44696;SDS011;57264;47.480;19.354;2024-01-10T09:28:49;15.05;;;6.28;;
44696;SDS011;57264;47.480;19.354;2024-01-10T09:31:14;15.03;;;6.03;;
44696;SDS011;57264;47.480;19.354;2024-01-10T09:33:40;13.43;;;5.87;;
44696;SDS011;57264;47.480;19.354;2024-01-10T09:36:06;18.05;;;7.78;;
44696;SDS011;57264;47.480;19.354;2024-01-10T09:38:35;12.77;;;5.83;;
44696;SDS011;57264;47.480;19.354;2024-01-10T09:41:02;17.13;;;7.57;;
44696;SDS011;57264;47.480;19.354;2024-01-10T09:43:30;11.55;;;5.18;;
44696;SDS011;57264;47.480;19.354;2024-01-10T09:46:01;13.80;;;6.10;;
44696;SDS011;57264;47.480;19.354;2024-01-10T09:48:30;13.40;;;5.80;;
44696;SDS011;57264;47.480;19.354;2024-01-10T09:50:56;16.48;;;7.55;;
44696;SDS011;57264;47.480;19.354;2024-01-10T09:53:23;16.88;;;6.70;;
44696;SDS011;57264;47.480;19.354;2024-01-10T09:55:50;18.38;;;6.90;;
44696;SDS011;57264;47.480;19.354;2024-01-10T09:58:15;17.17;;;7.60;;
44696;SDS011;57264;47.480;19.354;2024-01-10T10:00:41;13.75;;;7.20;;
44696;SDS011;57264;47.480;19.354;2024-01-10T10:03:07;18.83;;;7.33;;
44696;SDS011;57264;47.480;19.354;2024-01-10T10:05:38;13.60;;;7.60;;
44696;SDS011;57264;47.480;19.354;2024-01-10T10:08:12;21.00;;;8.75;;
44696;SDS011;57264;47.480;19.354;2024-01-10T10:10:40;25.27;;;9.63;;
44696;SDS011;57264;47.480;19.354;2024-01-10T10:13:10;15.88;;;7.63;;
44696;SDS011;57264;47.480;19.354;2024-01-10T10:15:40;24.85;;;9.23;;
44696;SDS011;57264;47.480;19.354;2024-01-10T10:18:13;17.00;;;7.90;;
44696;SDS011;57264;47.480;19.354;2024-01-10T10:20:39;16.90;;;7.85;;
44696;SDS011;57264;47.480;19.354;2024-01-10T10:23:05;15.23;;;8.27;;
44696;SDS011;57264;47.480;19.354;2024-01-10T10:25:33;16.52;;;8.27;;
44696;SDS011;57264;47.480;19.354;2024-01-10T10:28:00;14.82;;;8.40;;
44696;SDS011;57264;47.480;19.354;2024-01-10T10:30:27;19.50;;;9.10;;
44696;SDS011;57264;47.480;19.354;2024-01-10T10:32:54;16.40;;;7.55;;
44696;SDS011;57264;47.480;19.354;2024-01-10T10:35:20;15.13;;;8.10;;
44696;SDS011;57264;47.480;19.354;2024-01-10T10:37:49;17.73;;;7.45;;
44696;SDS011;57264;47.480;19.354;2024-01-10T10:40:16;17.17;;;7.47;;
44696;SDS011;57264;47.480;19.354;2024-01-10T10:42:46;14.98;;;6.97;;
44696;SDS011;57264;47.480;19.354;2024-01-10T10:45:16;12.40;;;7.43;;
44696;SDS011;57264;47.480;19.354;2024-01-10T10:47:44;12.10;;;6.70;;
44696;SDS011;57264;47.480;19.354;2024-01-10T10:50:21;14.68;;;6.20;;
44696;SDS011;57264;47.480;19.354;2024-01-10T10:52:48;15.90;;;6.53;;
44696;SDS011;57264;47.480;19.354;2024-01-10T10:55:21;11.32;;;5.80;;
44696;SDS011;57264;47.480;19.354;2024-01-10T10:57:48;13.05;;;6.60;;
44696;SDS011;57264;47.480;19.354;2024-01-10T11:00:15;9.90;;;5.10;;
44696;SDS011;57264;47.480;19.354;2024-01-10T11:02:45;13.32;;;5.95;;
44696;SDS011;57264;47.480;19.354;2024-01-10T11:05:12;16.33;;;6.65;;
44696;SDS011;57264;47.480;19.354;2024-01-10T11:07:38;12.80;;;6.25;;
44696;SDS011;57264;47.480;19.354;2024-01-10T11:10:08;14.68;;;5.95;;
44696;SDS011;57264;47.480;19.354;2024-01-10T11:12:44;14.90;;;5.63;;
44696;SDS011;57264;47.480;19.354;2024-01-10T11:15:42;63.28;;;19.70;;
44696;SDS011;57264;47.480;19.354;2024-01-10T11:18:28;74.65;;;33.78;;
44696;SDS011;57264;47.480;19.354;2024-01-10T11:23:40;12.50;;;6.38;;
44696;SDS011;57264;47.480;19.354;2024-01-10T11:26:13;13.50;;;5.75;;
44696;SDS011;57264;47.480;19.354;2024-01-10T11:28:40;12.23;;;5.10;;
44696;SDS011;57264;47.480;19.354;2024-01-10T11:31:08;14.32;;;6.10;;
44696;SDS011;57264;47.480;19.354;2024-01-10T11:33:39;13.55;;;6.15;;
44696;SDS011;57264;47.480;19.354;2024-01-10T11:38:40;10.63;;;5.40;;
44696;SDS011;57264;47.480;19.354;2024-01-10T11:41:33;10.15;;;4.60;;
44696;SDS011;57264;47.480;19.354;2024-01-10T11:49:16;7.25;;;4.22;;
44696;SDS011;57264;47.480;19.354;2024-01-10T11:51:44;9.07;;;5.80;;
44696;SDS011;57264;47.480;19.354;2024-01-10T11:54:10;17.67;;;5.30;;
44696;SDS011;57264;47.480;19.354;2024-01-10T11:56:39;13.43;;;5.30;;
44696;SDS011;57264;47.480;19.354;2024-01-10T11:59:07;11.30;;;5.22;;
44696;SDS011;57264;47.480;19.354;2024-01-10T12:01:40;11.40;;;5.63;;
44696;SDS011;57264;47.480;19.354;2024-01-10T12:04:07;10.93;;;5.30;;
44696;SDS011;57264;47.480;19.354;2024-01-10T12:06:37;9.40;;;4.80;;
44696;SDS011;57264;47.480;19.354;2024-01-10T12:09:03;9.37;;;5.13;;
44696;SDS011;57264;47.480;19.354;2024-01-10T12:11:40;10.85;;;5.18;;
44696;SDS011;57264;47.480;19.354;2024-01-10T12:14:07;11.75;;;5.10;;
44696;SDS011;57264;47.480;19.354;2024-01-10T12:16:34;12.35;;;5.63;;
44696;SDS011;57264;47.480;19.354;2024-01-10T12:19:00;8.40;;;4.20;;
44696;SDS011;57264;47.480;19.354;2024-01-10T12:21:25;11.70;;;4.37;;
44696;SDS011;57264;47.480;19.354;2024-01-10T12:23:51;8.87;;;5.07;;
44696;SDS011;57264;47.480;19.354;2024-01-10T12:26:17;10.70;;;4.80;;
44696;SDS011;57264;47.480;19.354;2024-01-10T12:28:56;7.93;;;4.70;;
44696;SDS011;57264;47.480;19.354;2024-01-10T12:31:24;8.63;;;5.00;;
44696;SDS011;57264;47.480;19.354;2024-01-10T12:33:52;8.20;;;4.90;;
44696;SDS011;57264;47.480;19.354;2024-01-10T12:36:20;9.38;;;5.05;;
44696;SDS011;57264;47.480;19.354;2024-01-10T12:38:46;11.20;;;5.33;;
44696;SDS011;57264;47.480;19.354;2024-01-10T12:41:12;13.07;;;4.83;;
44696;SDS011;57264;47.480;19.354;2024-01-10T12:43:40;13.75;;;6.78;;
44696;SDS011;57264;47.480;19.354;2024-01-10T12:46:10;10.87;;;5.57;;
44696;SDS011;57264;47.480;19.354;2024-01-10T12:48:39;8.80;;;5.28;;
44696;SDS011;57264;47.480;19.354;2024-01-10T12:51:07;10.52;;;5.53;;
44696;SDS011;57264;47.480;19.354;2024-01-10T12:53:37;10.43;;;4.78;;
44696;SDS011;57264;47.480;19.354;2024-01-10T12:56:07;8.40;;;4.88;;
44696;SDS011;57264;47.480;19.354;2024-01-10T12:58:34;12.15;;;5.13;;
44696;SDS011;57264;47.480;19.354;2024-01-10T13:01:01;8.63;;;4.90;;
44696;SDS011;57264;47.480;19.354;2024-01-10T13:03:28;10.55;;;5.43;;
44696;SDS011;57264;47.480;19.354;2024-01-10T13:05:54;9.23;;;5.40;;
44696;SDS011;57264;47.480;19.354;2024-01-10T13:08:20;8.37;;;4.23;;
44696;SDS011;57264;47.480;19.354;2024-01-10T13:10:46;8.93;;;5.20;;
44696;SDS011;57264;47.480;19.354;2024-01-10T13:13:12;10.07;;;5.45;;
44696;SDS011;57264;47.480;19.354;2024-01-10T13:15:38;13.50;;;5.20;;
44696;SDS011;57264;47.480;19.354;2024-01-10T13:18:04;10.80;;;5.90;;
44696;SDS011;57264;47.480;19.354;2024-01-10T13:20:29;10.07;;;5.53;;
44696;SDS011;57264;47.480;19.354;2024-01-10T13:22:55;12.13;;;5.73;;
44696;SDS011;57264;47.480;19.354;2024-01-10T13:25:21;14.77;;;5.30;;
44696;SDS011;57264;47.480;19.354;2024-01-10T13:27:50;9.75;;;5.20;;
44696;SDS011;57264;47.480;19.354;2024-01-10T13:30:16;11.30;;;5.57;;
44696;SDS011;57264;47.480;19.354;2024-01-10T13:32:42;9.27;;;5.18;;
44696;SDS011;57264;47.480;19.354;2024-01-10T13:35:08;9.63;;;5.28;;
44696;SDS011;57264;47.480;19.354;2024-01-10T13:37:35;11.57;;;5.53;;
44696;SDS011;57264;47.480;19.354;2024-01-10T13:40:02;8.13;;;4.97;;
44696;SDS011;57264;47.480;19.354;2024-01-10T13:42:30;11.52;;;5.43;;
44696;SDS011;57264;47.480;19.354;2024-01-10T13:44:56;11.10;;;5.72;;
44696;SDS011;57264;47.480;19.354;2024-01-10T13:47:22;7.87;;;5.43;;
44696;SDS011;57264;47.480;19.354;2024-01-10T13:49:48;13.43;;;6.47;;
44696;SDS011;57264;47.480;19.354;2024-01-10T13:52:18;11.38;;;6.20;;
44696;SDS011;57264;47.480;19.354;2024-01-10T13:54:44;9.27;;;5.88;;
44696;SDS011;57264;47.480;19.354;2024-01-10T13:57:10;12.77;;;5.33;;
44696;SDS011;57264;47.480;19.354;2024-01-10T13:59:35;12.10;;;5.90;;
44696;SDS011;57264;47.480;19.354;2024-01-10T14:02:01;12.10;;;5.97;;
44696;SDS011;57264;47.480;19.354;2024-01-10T14:04:26;17.13;;;6.17;;
44696;SDS011;57264;47.480;19.354;2024-01-10T14:06:52;37.70;;;7.03;;
44696;SDS011;57264;47.480;19.354;2024-01-10T14:09:17;12.93;;;5.77;;
44696;SDS011;57264;47.480;19.354;2024-01-10T14:11:43;13.93;;;6.43;;
44696;SDS011;57264;47.480;19.354;2024-01-10T14:14:13;13.55;;;6.45;;
44696;SDS011;57264;47.480;19.354;2024-01-10T14:16:39;10.53;;;5.67;;
44696;SDS011;57264;47.480;19.354;2024-01-10T14:19:06;13.57;;;5.97;;
44696;SDS011;57264;47.480;19.354;2024-01-10T14:21:31;17.00;;;6.27;;
44696;SDS011;57264;47.480;19.354;2024-01-10T14:23:59;13.10;;;6.70;;
44696;SDS011;57264;47.480;19.354;2024-01-10T14:26:35;10.95;;;6.00;;
44696;SDS011;57264;47.480;19.354;2024-01-10T14:29:01;14.32;;;6.80;;
44696;SDS011;57264;47.480;19.354;2024-01-10T14:31:27;12.63;;;5.53;;